sensor_id;sensor_type;location;lat;lon;timestamp;temperature;humidity
40077;DHT22;25777;47.824;18.982;2023-12-20T00:01:27;0.50;99.90
40077;DHT22;25777;47.824;18.982;2023-12-20T00:03:53;0.50;99.90
40077;DHT22;25777;47.824;18.982;2023-12-20T00:06:19;0.60;99.90
40077;DHT22;25777;47.824;18.982;2023-12-20T00:08:45;0.60;99.90
40077;DHT22;25777;47.824;18.982;2023-12-20T00:11:10;0.60;99.90
40077;DHT22;25777;47.824;18.982;2023-12-20T00:13:36;0.60;99.90
40077;DHT22;25777;47.824;18.982;2023-12-20T00:16:02;0.50;99.90
40077;DHT22;25777;47.824;18.982;2023-12-20T00:18:28;0.50;99.90
40077;DHT22;25777;47.824;18.982;2023-12-20T00:20:54;0.60;99.90
40077;DHT22;25777;47.824;18.982;2023-12-20T00:23:19;0.60;99.90
40077;DHT22;25777;47.824;18.982;2023-12-20T00:25:45;0.60;99.90
40077;DHT22;25777;47.824;18.982;2023-12-20T00:28:11;0.50;99.90
40077;DHT22;25777;47.824;18.982;2023-12-20T00:30:37;0.60;99.90
40077;DHT22;25777;47.824;18.982;2023-12-20T00:33:03;0.50;99.90
40077;DHT22;25777;47.824;18.982;2023-12-20T00:35:29;0.60;99.90
40077;DHT22;25777;47.824;18.982;2023-12-20T00:37:54;0.60;99.90
40077;DHT22;25777;47.824;18.982;2023-12-20T00:40:20;0.60;99.90
40077;DHT22;25777;47.824;18.982;2023-12-20T00:42:46;0.40;99.90
40077;DHT22;25777;47.824;18.982;2023-12-20T00:45:12;0.40;99.90
40077;DHT22;25777;47.824;18.982;2023-12-20T00:47:40;0.40;99.90
40077;DHT22;25777;47.824;18.982;2023-12-20T00:50:06;0.30;99.90
40077;DHT22;25777;47.824;18.982;2023-12-20T00:52:32;0.30;99.90
40077;DHT22;25777;47.824;18.982;2023-12-20T00:54:58;0.20;99.90
40077;DHT22;25777;47.824;18.982;2023-12-20T00:57:24;0.20;99.90
40077;DHT22;25777;47.824;18.982;2023-12-20T00:59:50;0.10;99.90
40077;DHT22;25777;47.824;18.982;2023-12-20T01:02:16;0.10;99.90
40077;DHT22;25777;47.824;18.982;2023-12-20T01:04:42;0.30;99.90
40077;DHT22;25777;47.824;18.982;2023-12-20T01:07:08;0.40;99.90
40077;DHT22;25777;47.824;18.982;2023-12-20T01:09:34;0.50;99.90
40077;DHT22;25777;47.824;18.982;2023-12-20T01:12:00;0.50;99.90
40077;DHT22;25777;47.824;18.982;2023-12-20T01:14:25;0.30;99.90
40077;DHT22;25777;47.824;18.982;2023-12-20T01:16:51;0.30;99.90
40077;DHT22;25777;47.824;18.982;2023-12-20T01:19:17;0.30;99.90
40077;DHT22;25777;47.824;18.982;2023-12-20T01:21:43;0.30;99.90
40077;DHT22;25777;47.824;18.982;2023-12-20T01:24:09;-0.20;99.90
40077;DHT22;25777;47.824;18.982;2023-12-20T01:26:35;0.00;99.90
40077;DHT22;25777;47.824;18.982;2023-12-20T01:29:01;0.00;99.90
40077;DHT22;25777;47.824;18.982;2023-12-20T01:31:27;0.10;99.90
40077;DHT22;25777;47.824;18.982;2023-12-20T01:33:53;0.30;99.90
40077;DHT22;25777;47.824;18.982;2023-12-20T01:36:19;0.40;99.90
40077;DHT22;25777;47.824;18.982;2023-12-20T01:38:45;0.30;99.90
40077;DHT22;25777;47.824;18.982;2023-12-20T01:41:11;0.00;99.90
40077;DHT22;25777;47.824;18.982;2023-12-20T01:43:36;0.30;99.90
40077;DHT22;25777;47.824;18.982;2023-12-20T01:46:02;0.20;99.90
40077;DHT22;25777;47.824;18.982;2023-12-20T01:48:29;0.30;99.90
40077;DHT22;25777;47.824;18.982;2023-12-20T01:50:58;0.40;99.90
40077;DHT22;25777;47.824;18.982;2023-12-20T01:53:25;0.30;99.90
40077;DHT22;25777;47.824;18.982;2023-12-20T01:55:55;0.40;99.90
40077;DHT22;25777;47.824;18.982;2023-12-20T01:58:22;0.40;99.90
40077;DHT22;25777;47.824;18.982;2023-12-20T02:00:49;0.50;99.90
40077;DHT22;25777;47.824;18.982;2023-12-20T02:03:15;0.50;99.90
40077;DHT22;25777;47.824;18.982;2023-12-20T02:05:41;0.50;99.90
40077;DHT22;25777;47.824;18.982;2023-12-20T02:08:07;0.50;99.90
40077;DHT22;25777;47.824;18.982;2023-12-20T02:10:33;0.50;99.90
40077;DHT22;25777;47.824;18.982;2023-12-20T02:12:59;0.50;99.90
40077;DHT22;25777;47.824;18.982;2023-12-20T02:15:25;0.50;99.90
40077;DHT22;25777;47.824;18.982;2023-12-20T02:17:51;0.40;99.90
40077;DHT22;25777;47.824;18.982;2023-12-20T02:20:17;0.30;99.90
40077;DHT22;25777;47.824;18.982;2023-12-20T02:22:43;0.10;99.90
40077;DHT22;25777;47.824;18.982;2023-12-20T02:25:09;0.20;99.90
40077;DHT22;25777;47.824;18.982;2023-12-20T02:27:35;0.20;99.90
40077;DHT22;25777;47.824;18.982;2023-12-20T02:30:00;0.10;99.90
40077;DHT22;25777;47.824;18.982;2023-12-20T02:32:26;0.00;99.90
40077;DHT22;25777;47.824;18.982;2023-12-20T02:34:53;0.10;99.90
40077;DHT22;25777;47.824;18.982;2023-12-20T02:37:19;0.20;99.90
40077;DHT22;25777;47.824;18.982;2023-12-20T02:39:45;0.30;99.90
40077;DHT22;25777;47.824;18.982;2023-12-20T02:42:10;0.30;99.90
40077;DHT22;25777;47.824;18.982;2023-12-20T02:44:36;0.40;99.90
40077;DHT22;25777;47.824;18.982;2023-12-20T02:47:02;0.30;99.90
40077;DHT22;25777;47.824;18.982;2023-12-20T02:49:28;0.20;99.90
40077;DHT22;25777;47.824;18.982;2023-12-20T02:51:54;0.20;99.90
40077;DHT22;25777;47.824;18.982;2023-12-20T02:54:20;0.10;99.90
40077;DHT22;25777;47.824;18.982;2023-12-20T02:56:46;0.20;99.90
40077;DHT22;25777;47.824;18.982;2023-12-20T02:59:12;0.30;99.90
40077;DHT22;25777;47.824;18.982;2023-12-20T03:01:43;0.40;99.90
40077;DHT22;25777;47.824;18.982;2023-12-20T03:04:09;0.30;99.90
40077;DHT22;25777;47.824;18.982;2023-12-20T03:06:34;0.40;99.90
40077;DHT22;25777;47.824;18.982;2023-12-20T03:09:00;0.30;99.90
40077;DHT22;25777;47.824;18.982;2023-12-20T03:11:27;0.10;99.90
40077;DHT22;25777;47.824;18.982;2023-12-20T03:13:53;0.10;99.90
40077;DHT22;25777;47.824;18.982;2023-12-20T03:16:19;0.20;99.90
40077;DHT22;25777;47.824;18.982;2023-12-20T03:18:45;0.30;99.90
40077;DHT22;25777;47.824;18.982;2023-12-20T03:21:10;0.30;99.90
40077;DHT22;25777;47.824;18.982;2023-12-20T03:23:36;0.20;99.90
40077;DHT22;25777;47.824;18.982;2023-12-20T03:26:02;0.10;99.90
40077;DHT22;25777;47.824;18.982;2023-12-20T03:28:30;0.20;99.90
40077;DHT22;25777;47.824;18.982;2023-12-20T03:30:56;0.30;99.90
40077;DHT22;25777;47.824;18.982;2023-12-20T03:33:21;0.30;99.90
40077;DHT22;25777;47.824;18.982;2023-12-20T03:35:47;0.30;99.90
40077;DHT22;25777;47.824;18.982;2023-12-20T03:38:13;0.10;99.90
40077;DHT22;25777;47.824;18.982;2023-12-20T03:40:39;0.00;99.90
40077;DHT22;25777;47.824;18.982;2023-12-20T03:43:05;0.10;99.90
40077;DHT22;25777;47.824;18.982;2023-12-20T03:45:30;0.10;99.90
40077;DHT22;25777;47.824;18.982;2023-12-20T03:47:56;0.20;99.90
40077;DHT22;25777;47.824;18.982;2023-12-20T03:50:23;0.10;99.90
40077;DHT22;25777;47.824;18.982;2023-12-20T03:52:49;0.20;99.90
40077;DHT22;25777;47.824;18.982;2023-12-20T03:55:15;0.30;99.90
40077;DHT22;25777;47.824;18.982;2023-12-20T03:57:41;0.20;99.90
40077;DHT22;25777;47.824;18.982;2023-12-20T04:00:10;0.00;99.90
40077;DHT22;25777;47.824;18.982;2023-12-20T04:02:37;-0.30;99.90
40077;DHT22;25777;47.824;18.982;2023-12-20T04:05:04;-0.20;99.90
40077;DHT22;25777;47.824;18.982;2023-12-20T04:07:30;0.00;99.90
40077;DHT22;25777;47.824;18.982;2023-12-20T04:09:56;0.10;99.90
40077;DHT22;25777;47.824;18.982;2023-12-20T04:12:22;0.20;99.90
40077;DHT22;25777;47.824;18.982;2023-12-20T04:14:48;0.30;99.90
40077;DHT22;25777;47.824;18.982;2023-12-20T04:17:15;0.20;99.90
40077;DHT22;25777;47.824;18.982;2023-12-20T04:19:42;0.30;99.90
40077;DHT22;25777;47.824;18.982;2023-12-20T04:22:08;0.30;99.90
40077;DHT22;25777;47.824;18.982;2023-12-20T04:24:34;0.30;99.90
40077;DHT22;25777;47.824;18.982;2023-12-20T04:27:00;0.60;99.90
40077;DHT22;25777;47.824;18.982;2023-12-20T04:29:26;0.60;99.90
40077;DHT22;25777;47.824;18.982;2023-12-20T04:31:51;0.60;99.90
40077;DHT22;25777;47.824;18.982;2023-12-20T04:34:17;0.50;99.90
40077;DHT22;25777;47.824;18.982;2023-12-20T04:36:44;0.50;99.90
40077;DHT22;25777;47.824;18.982;2023-12-20T04:39:11;0.50;99.90
40077;DHT22;25777;47.824;18.982;2023-12-20T04:41:36;0.50;99.90
40077;DHT22;25777;47.824;18.982;2023-12-20T04:44:02;0.50;99.90
40077;DHT22;25777;47.824;18.982;2023-12-20T04:46:28;0.50;99.90
40077;DHT22;25777;47.824;18.982;2023-12-20T04:48:54;0.30;99.90
40077;DHT22;25777;47.824;18.982;2023-12-20T04:51:20;0.30;99.90
40077;DHT22;25777;47.824;18.982;2023-12-20T04:53:46;0.30;99.90
40077;DHT22;25777;47.824;18.982;2023-12-20T04:56:12;0.30;99.90
40077;DHT22;25777;47.824;18.982;2023-12-20T04:58:38;0.30;99.90
40077;DHT22;25777;47.824;18.982;2023-12-20T05:01:06;0.30;99.90
40077;DHT22;25777;47.824;18.982;2023-12-20T05:03:32;0.10;99.90
40077;DHT22;25777;47.824;18.982;2023-12-20T05:05:58;0.10;99.90
40077;DHT22;25777;47.824;18.982;2023-12-20T05:08:24;0.10;99.90
40077;DHT22;25777;47.824;18.982;2023-12-20T05:10:54;0.20;99.90
40077;DHT22;25777;47.824;18.982;2023-12-20T05:13:20;0.30;99.90
40077;DHT22;25777;47.824;18.982;2023-12-20T05:15:46;0.10;99.90
40077;DHT22;25777;47.824;18.982;2023-12-20T05:18:12;0.10;99.90
40077;DHT22;25777;47.824;18.982;2023-12-20T05:20:39;0.20;99.90
40077;DHT22;25777;47.824;18.982;2023-12-20T05:23:04;0.20;99.90
40077;DHT22;25777;47.824;18.982;2023-12-20T05:25:31;0.30;99.90
40077;DHT22;25777;47.824;18.982;2023-12-20T05:27:56;0.30;99.90
40077;DHT22;25777;47.824;18.982;2023-12-20T05:30:22;0.20;99.90
40077;DHT22;25777;47.824;18.982;2023-12-20T05:32:48;0.30;99.90
40077;DHT22;25777;47.824;18.982;2023-12-20T05:35:14;0.30;99.90
40077;DHT22;25777;47.824;18.982;2023-12-20T05:37:41;0.40;99.90
40077;DHT22;25777;47.824;18.982;2023-12-20T05:40:07;0.40;99.90
40077;DHT22;25777;47.824;18.982;2023-12-20T05:42:36;0.20;99.90
40077;DHT22;25777;47.824;18.982;2023-12-20T05:45:03;0.10;99.90
40077;DHT22;25777;47.824;18.982;2023-12-20T05:47:29;0.20;99.90
40077;DHT22;25777;47.824;18.982;2023-12-20T05:49:55;0.00;99.90
40077;DHT22;25777;47.824;18.982;2023-12-20T05:52:21;0.10;99.90
40077;DHT22;25777;47.824;18.982;2023-12-20T05:54:47;0.10;99.90
40077;DHT22;25777;47.824;18.982;2023-12-20T05:57:13;0.20;99.90
40077;DHT22;25777;47.824;18.982;2023-12-20T05:59:39;0.30;99.90
40077;DHT22;25777;47.824;18.982;2023-12-20T06:02:05;0.30;99.90
40077;DHT22;25777;47.824;18.982;2023-12-20T06:04:31;0.40;99.90
40077;DHT22;25777;47.824;18.982;2023-12-20T06:06:57;0.40;99.90
40077;DHT22;25777;47.824;18.982;2023-12-20T06:09:23;0.40;99.90
40077;DHT22;25777;47.824;18.982;2023-12-20T06:11:49;0.40;99.90
40077;DHT22;25777;47.824;18.982;2023-12-20T06:14:15;0.40;99.90
40077;DHT22;25777;47.824;18.982;2023-12-20T06:16:40;0.20;99.90
40077;DHT22;25777;47.824;18.982;2023-12-20T06:19:06;0.30;99.90
40077;DHT22;25777;47.824;18.982;2023-12-20T06:21:32;0.20;99.90
40077;DHT22;25777;47.824;18.982;2023-12-20T06:23:59;0.40;99.90
40077;DHT22;25777;47.824;18.982;2023-12-20T06:26:25;0.40;99.90
40077;DHT22;25777;47.824;18.982;2023-12-20T06:28:51;0.50;99.90
40077;DHT22;25777;47.824;18.982;2023-12-20T06:31:17;0.40;99.90
40077;DHT22;25777;47.824;18.982;2023-12-20T06:33:43;0.40;99.90
40077;DHT22;25777;47.824;18.982;2023-12-20T06:36:12;0.40;99.90
40077;DHT22;25777;47.824;18.982;2023-12-20T06:38:39;0.40;99.90
40077;DHT22;25777;47.824;18.982;2023-12-20T06:41:05;0.40;99.90
40077;DHT22;25777;47.824;18.982;2023-12-20T06:43:31;0.30;99.90
40077;DHT22;25777;47.824;18.982;2023-12-20T06:45:58;-0.10;99.90
40077;DHT22;25777;47.824;18.982;2023-12-20T06:48:26;-0.40;99.90
40077;DHT22;25777;47.824;18.982;2023-12-20T06:50:51;-0.30;99.90
40077;DHT22;25777;47.824;18.982;2023-12-20T06:53:18;0.00;99.90
40077;DHT22;25777;47.824;18.982;2023-12-20T06:55:43;0.10;99.90
40077;DHT22;25777;47.824;18.982;2023-12-20T06:58:09;0.30;99.90
40077;DHT22;25777;47.824;18.982;2023-12-20T07:00:35;0.30;99.90
40077;DHT22;25777;47.824;18.982;2023-12-20T07:03:01;0.40;99.90
40077;DHT22;25777;47.824;18.982;2023-12-20T07:05:27;0.40;99.90
40077;DHT22;25777;47.824;18.982;2023-12-20T07:07:53;0.40;99.90
40077;DHT22;25777;47.824;18.982;2023-12-20T07:10:19;0.40;99.90
40077;DHT22;25777;47.824;18.982;2023-12-20T07:12:45;0.40;99.90
40077;DHT22;25777;47.824;18.982;2023-12-20T07:15:11;0.30;99.90
40077;DHT22;25777;47.824;18.982;2023-12-20T07:17:37;0.20;99.90
40077;DHT22;25777;47.824;18.982;2023-12-20T07:20:04;0.30;99.90
40077;DHT22;25777;47.824;18.982;2023-12-20T07:22:30;0.30;99.90
40077;DHT22;25777;47.824;18.982;2023-12-20T07:24:59;0.40;99.90
40077;DHT22;25777;47.824;18.982;2023-12-20T07:27:26;0.40;99.90
40077;DHT22;25777;47.824;18.982;2023-12-20T07:29:52;0.40;99.90
40077;DHT22;25777;47.824;18.982;2023-12-20T07:32:18;0.40;99.90
40077;DHT22;25777;47.824;18.982;2023-12-20T07:34:44;0.50;99.90
40077;DHT22;25777;47.824;18.982;2023-12-20T07:37:10;0.40;99.90
40077;DHT22;25777;47.824;18.982;2023-12-20T07:39:40;0.40;99.90
40077;DHT22;25777;47.824;18.982;2023-12-20T07:42:07;0.40;99.90
40077;DHT22;25777;47.824;18.982;2023-12-20T07:44:33;0.40;99.90
40077;DHT22;25777;47.824;18.982;2023-12-20T07:46:59;0.30;99.90
40077;DHT22;25777;47.824;18.982;2023-12-20T07:49:26;0.20;99.90
40077;DHT22;25777;47.824;18.982;2023-12-20T07:51:52;0.10;99.90
40077;DHT22;25777;47.824;18.982;2023-12-20T07:54:18;0.20;99.90
40077;DHT22;25777;47.824;18.982;2023-12-20T07:56:45;0.30;99.90
40077;DHT22;25777;47.824;18.982;2023-12-20T07:59:11;0.30;99.90
40077;DHT22;25777;47.824;18.982;2023-12-20T08:01:36;0.30;99.90
40077;DHT22;25777;47.824;18.982;2023-12-20T08:04:02;0.40;99.90
40077;DHT22;25777;47.824;18.982;2023-12-20T08:06:34;0.10;99.90
40077;DHT22;25777;47.824;18.982;2023-12-20T08:09:00;-0.10;99.90
40077;DHT22;25777;47.824;18.982;2023-12-20T08:11:26;-0.30;99.90
40077;DHT22;25777;47.824;18.982;2023-12-20T08:13:51;-0.30;99.90
40077;DHT22;25777;47.824;18.982;2023-12-20T08:16:17;-0.20;99.90
40077;DHT22;25777;47.824;18.982;2023-12-20T08:18:43;0.00;99.90
40077;DHT22;25777;47.824;18.982;2023-12-20T08:21:09;0.20;99.90
40077;DHT22;25777;47.824;18.982;2023-12-20T08:23:35;0.30;99.90
40077;DHT22;25777;47.824;18.982;2023-12-20T08:26:06;0.40;99.90
40077;DHT22;25777;47.824;18.982;2023-12-20T08:28:32;0.20;99.90
40077;DHT22;25777;47.824;18.982;2023-12-20T08:30:58;0.20;99.90
40077;DHT22;25777;47.824;18.982;2023-12-20T08:33:24;0.20;99.90
40077;DHT22;25777;47.824;18.982;2023-12-20T08:35:50;0.30;99.90
40077;DHT22;25777;47.824;18.982;2023-12-20T08:38:15;0.20;99.90
40077;DHT22;25777;47.824;18.982;2023-12-20T08:40:43;0.10;99.90
40077;DHT22;25777;47.824;18.982;2023-12-20T08:43:09;-0.30;99.90
40077;DHT22;25777;47.824;18.982;2023-12-20T08:45:35;-0.50;99.90
40077;DHT22;25777;47.824;18.982;2023-12-20T08:48:01;-0.40;99.90
40077;DHT22;25777;47.824;18.982;2023-12-20T08:50:26;-0.40;99.90
40077;DHT22;25777;47.824;18.982;2023-12-20T08:52:52;-0.30;99.90
40077;DHT22;25777;47.824;18.982;2023-12-20T08:55:19;-0.30;99.90
40077;DHT22;25777;47.824;18.982;2023-12-20T08:57:45;-0.20;99.90
40077;DHT22;25777;47.824;18.982;2023-12-20T09:00:11;-0.20;99.90
40077;DHT22;25777;47.824;18.982;2023-12-20T09:02:37;0.00;99.90
40077;DHT22;25777;47.824;18.982;2023-12-20T09:05:03;0.30;99.90
40077;DHT22;25777;47.824;18.982;2023-12-20T09:07:29;0.40;99.90
40077;DHT22;25777;47.824;18.982;2023-12-20T09:09:58;0.50;99.90
40077;DHT22;25777;47.824;18.982;2023-12-20T09:12:25;0.50;99.90
40077;DHT22;25777;47.824;18.982;2023-12-20T09:14:51;0.50;99.90
40077;DHT22;25777;47.824;18.982;2023-12-20T09:17:18;0.40;99.90
40077;DHT22;25777;47.824;18.982;2023-12-20T09:19:44;0.50;99.90
40077;DHT22;25777;47.824;18.982;2023-12-20T09:22:10;0.60;99.90
40077;DHT22;25777;47.824;18.982;2023-12-20T09:24:37;0.70;99.90
40077;DHT22;25777;47.824;18.982;2023-12-20T09:27:04;0.80;99.90
40077;DHT22;25777;47.824;18.982;2023-12-20T09:29:31;0.90;99.90
40077;DHT22;25777;47.824;18.982;2023-12-20T09:31:57;0.90;99.90
40077;DHT22;25777;47.824;18.982;2023-12-20T09:34:23;0.90;99.90
40077;DHT22;25777;47.824;18.982;2023-12-20T09:36:49;1.00;99.90
40077;DHT22;25777;47.824;18.982;2023-12-20T09:39:17;0.90;99.90
40077;DHT22;25777;47.824;18.982;2023-12-20T09:42:05;0.80;99.90
40077;DHT22;25777;47.824;18.982;2023-12-20T09:44:32;0.90;99.90
40077;DHT22;25777;47.824;18.982;2023-12-20T09:47:02;0.70;99.90
40077;DHT22;25777;47.824;18.982;2023-12-20T09:49:30;1.40;99.90
40077;DHT22;25777;47.824;18.982;2023-12-20T09:51:56;1.50;99.90
40077;DHT22;25777;47.824;18.982;2023-12-20T09:54:23;1.60;99.90
40077;DHT22;25777;47.824;18.982;2023-12-20T09:56:49;2.00;99.90
40077;DHT22;25777;47.824;18.982;2023-12-20T09:59:15;2.20;99.90
40077;DHT22;25777;47.824;18.982;2023-12-20T10:01:42;2.00;99.90
40077;DHT22;25777;47.824;18.982;2023-12-20T10:04:09;1.90;99.90
40077;DHT22;25777;47.824;18.982;2023-12-20T10:06:41;2.20;99.90
40077;DHT22;25777;47.824;18.982;2023-12-20T10:09:08;2.00;99.90
40077;DHT22;25777;47.824;18.982;2023-12-20T10:11:36;1.40;99.90
40077;DHT22;25777;47.824;18.982;2023-12-20T10:14:03;1.10;99.90
40077;DHT22;25777;47.824;18.982;2023-12-20T10:16:30;1.10;99.90
40077;DHT22;25777;47.824;18.982;2023-12-20T10:18:56;1.00;99.90
40077;DHT22;25777;47.824;18.982;2023-12-20T10:21:23;1.00;99.90
40077;DHT22;25777;47.824;18.982;2023-12-20T10:23:49;1.90;99.90
40077;DHT22;25777;47.824;18.982;2023-12-20T10:26:34;2.40;99.90
40077;DHT22;25777;47.824;18.982;2023-12-20T10:29:00;2.20;99.90
40077;DHT22;25777;47.824;18.982;2023-12-20T10:31:30;2.40;99.90
40077;DHT22;25777;47.824;18.982;2023-12-20T10:33:57;2.20;99.90
40077;DHT22;25777;47.824;18.982;2023-12-20T10:36:29;2.20;99.90
40077;DHT22;25777;47.824;18.982;2023-12-20T10:38:56;2.40;99.90
40077;DHT22;25777;47.824;18.982;2023-12-20T10:41:30;2.50;99.90
40077;DHT22;25777;47.824;18.982;2023-12-20T10:44:01;2.40;99.90
40077;DHT22;25777;47.824;18.982;2023-12-20T10:46:29;2.10;99.90
40077;DHT22;25777;47.824;18.982;2023-12-20T10:48:56;2.60;99.90
40077;DHT22;25777;47.824;18.982;2023-12-20T10:51:23;3.20;99.90
40077;DHT22;25777;47.824;18.982;2023-12-20T10:53:50;3.60;99.90
40077;DHT22;25777;47.824;18.982;2023-12-20T10:56:19;3.90;99.90
40077;DHT22;25777;47.824;18.982;2023-12-20T10:58:49;3.60;99.90
40077;DHT22;25777;47.824;18.982;2023-12-20T11:01:19;4.50;99.90
40077;DHT22;25777;47.824;18.982;2023-12-20T11:03:53;4.20;99.90
40077;DHT22;25777;47.824;18.982;2023-12-20T11:06:58;3.50;99.90
40077;DHT22;25777;47.824;18.982;2023-12-20T11:09:26;3.20;99.90
40077;DHT22;25777;47.824;18.982;2023-12-20T11:12:13;3.40;99.90
40077;DHT22;25777;47.824;18.982;2023-12-20T11:14:50;3.70;99.90
40077;DHT22;25777;47.824;18.982;2023-12-20T11:17:16;3.40;99.90
40077;DHT22;25777;47.824;18.982;2023-12-20T11:22:22;3.90;99.90
40077;DHT22;25777;47.824;18.982;2023-12-20T11:24:50;3.50;99.90
40077;DHT22;25777;47.824;18.982;2023-12-20T11:27:16;3.20;99.90
40077;DHT22;25777;47.824;18.982;2023-12-20T11:29:42;2.90;99.90
40077;DHT22;25777;47.824;18.982;2023-12-20T11:34:59;3.10;99.90
40077;DHT22;25777;47.824;18.982;2023-12-20T11:37:35;3.30;99.90
40077;DHT22;25777;47.824;18.982;2023-12-20T11:40:04;3.30;99.90
40077;DHT22;25777;47.824;18.982;2023-12-20T11:42:37;3.10;99.90
40077;DHT22;25777;47.824;18.982;2023-12-20T11:45:03;3.10;99.90
40077;DHT22;25777;47.824;18.982;2023-12-20T11:47:31;3.20;99.90
40077;DHT22;25777;47.824;18.982;2023-12-20T11:49:57;3.20;99.90
40077;DHT22;25777;47.824;18.982;2023-12-20T11:52:23;3.10;99.90
40077;DHT22;25777;47.824;18.982;2023-12-20T11:54:48;3.10;99.90
40077;DHT22;25777;47.824;18.982;2023-12-20T11:57:14;3.20;99.90
40077;DHT22;25777;47.824;18.982;2023-12-20T11:59:40;3.20;99.90
40077;DHT22;25777;47.824;18.982;2023-12-20T12:02:06;3.10;99.90
40077;DHT22;25777;47.824;18.982;2023-12-20T12:04:32;3.20;99.90
40077;DHT22;25777;47.824;18.982;2023-12-20T12:06:57;3.20;99.90
40077;DHT22;25777;47.824;18.982;2023-12-20T12:09:23;3.20;99.90
40077;DHT22;25777;47.824;18.982;2023-12-20T12:11:49;3.20;99.90
40077;DHT22;25777;47.824;18.982;2023-12-20T12:14:15;3.20;99.90
40077;DHT22;25777;47.824;18.982;2023-12-20T12:16:44;3.20;99.90
40077;DHT22;25777;47.824;18.982;2023-12-20T12:19:23;3.20;99.90
40077;DHT22;25777;47.824;18.982;2023-12-20T12:22:10;3.30;99.90
40077;DHT22;25777;47.824;18.982;2023-12-20T12:24:39;3.20;99.90
40077;DHT22;25777;47.824;18.982;2023-12-20T12:27:08;3.10;99.90
40077;DHT22;25777;47.824;18.982;2023-12-20T12:29:35;3.10;99.90
40077;DHT22;25777;47.824;18.982;2023-12-20T12:32:05;3.20;99.90
40077;DHT22;25777;47.824;18.982;2023-12-20T12:34:32;3.20;99.90
40077;DHT22;25777;47.824;18.982;2023-12-20T12:36:58;3.10;99.90
40077;DHT22;25777;47.824;18.982;2023-12-20T12:39:24;3.10;99.90
40077;DHT22;25777;47.824;18.982;2023-12-20T12:41:53;3.10;99.90
40077;DHT22;25777;47.824;18.982;2023-12-20T12:44:19;3.00;99.90
40077;DHT22;25777;47.824;18.982;2023-12-20T12:46:46;3.10;99.90
40077;DHT22;25777;47.824;18.982;2023-12-20T12:49:13;3.00;99.90
40077;DHT22;25777;47.824;18.982;2023-12-20T12:51:38;2.90;99.90
40077;DHT22;25777;47.824;18.982;2023-12-20T12:54:04;2.90;99.90
40077;DHT22;25777;47.824;18.982;2023-12-20T12:56:30;3.00;99.90
40077;DHT22;25777;47.824;18.982;2023-12-20T12:58:56;3.00;99.90
40077;DHT22;25777;47.824;18.982;2023-12-20T13:01:22;3.00;99.90
40077;DHT22;25777;47.824;18.982;2023-12-20T13:03:48;3.00;99.90
40077;DHT22;25777;47.824;18.982;2023-12-20T13:06:14;3.10;99.90
40077;DHT22;25777;47.824;18.982;2023-12-20T13:08:39;3.10;99.90
40077;DHT22;25777;47.824;18.982;2023-12-20T13:11:05;3.10;99.90
40077;DHT22;25777;47.824;18.982;2023-12-20T13:13:31;3.00;99.90
40077;DHT22;25777;47.824;18.982;2023-12-20T13:15:57;3.10;99.90
40077;DHT22;25777;47.824;18.982;2023-12-20T13:18:23;3.10;99.90
40077;DHT22;25777;47.824;18.982;2023-12-20T13:20:49;3.10;99.90
40077;DHT22;25777;47.824;18.982;2023-12-20T13:23:15;3.10;99.90
40077;DHT22;25777;47.824;18.982;2023-12-20T13:25:43;3.00;99.90
40077;DHT22;25777;47.824;18.982;2023-12-20T13:28:11;3.00;99.90
40077;DHT22;25777;47.824;18.982;2023-12-20T13:30:37;3.10;99.90
40077;DHT22;25777;47.824;18.982;2023-12-20T13:33:04;3.20;99.90
40077;DHT22;25777;47.824;18.982;2023-12-20T13:35:31;3.20;99.90
40077;DHT22;25777;47.824;18.982;2023-12-20T13:37:58;3.20;99.90
40077;DHT22;25777;47.824;18.982;2023-12-20T13:40:24;3.00;99.90
40077;DHT22;25777;47.824;18.982;2023-12-20T13:42:50;3.10;99.90
40077;DHT22;25777;47.824;18.982;2023-12-20T13:45:16;3.40;99.90
40077;DHT22;25777;47.824;18.982;2023-12-20T13:47:42;3.20;99.90
40077;DHT22;25777;47.824;18.982;2023-12-20T13:50:08;3.20;99.90
40077;DHT22;25777;47.824;18.982;2023-12-20T13:52:34;3.30;99.90
40077;DHT22;25777;47.824;18.982;2023-12-20T13:54:59;3.20;99.90
40077;DHT22;25777;47.824;18.982;2023-12-20T13:57:25;3.30;99.90
40077;DHT22;25777;47.824;18.982;2023-12-20T13:59:51;3.20;99.90
40077;DHT22;25777;47.824;18.982;2023-12-20T14:02:17;3.20;99.90
40077;DHT22;25777;47.824;18.982;2023-12-20T14:04:43;3.00;99.90
40077;DHT22;25777;47.824;18.982;2023-12-20T14:07:10;3.00;99.90
40077;DHT22;25777;47.824;18.982;2023-12-20T14:09:36;3.00;99.90
40077;DHT22;25777;47.824;18.982;2023-12-20T14:12:02;2.90;99.90
40077;DHT22;25777;47.824;18.982;2023-12-20T14:14:28;3.10;99.90
40077;DHT22;25777;47.824;18.982;2023-12-20T14:16:54;3.20;99.90
40077;DHT22;25777;47.824;18.982;2023-12-20T14:19:19;3.10;99.90
40077;DHT22;25777;47.824;18.982;2023-12-20T14:21:45;3.10;99.90
40077;DHT22;25777;47.824;18.982;2023-12-20T14:24:14;3.00;99.90
40077;DHT22;25777;47.824;18.982;2023-12-20T14:26:41;3.10;99.90
40077;DHT22;25777;47.824;18.982;2023-12-20T14:29:07;3.10;99.90
40077;DHT22;25777;47.824;18.982;2023-12-20T14:31:33;3.10;99.90
40077;DHT22;25777;47.824;18.982;2023-12-20T14:33:59;3.10;99.90
40077;DHT22;25777;47.824;18.982;2023-12-20T14:36:27;3.10;99.90
40077;DHT22;25777;47.824;18.982;2023-12-20T14:38:53;3.00;99.90
40077;DHT22;25777;47.824;18.982;2023-12-20T14:41:19;3.00;99.90
40077;DHT22;25777;47.824;18.982;2023-12-20T14:43:45;2.90;99.90
40077;DHT22;25777;47.824;18.982;2023-12-20T14:46:12;3.10;99.90
40077;DHT22;25777;47.824;18.982;2023-12-20T14:48:38;3.10;99.90
40077;DHT22;25777;47.824;18.982;2023-12-20T14:51:04;3.10;99.90
40077;DHT22;25777;47.824;18.982;2023-12-20T14:53:29;3.10;99.90
40077;DHT22;25777;47.824;18.982;2023-12-20T14:55:55;2.90;99.90
40077;DHT22;25777;47.824;18.982;2023-12-20T14:58:21;2.90;99.90
40077;DHT22;25777;47.824;18.982;2023-12-20T15:00:47;2.80;99.90
40077;DHT22;25777;47.824;18.982;2023-12-20T15:03:12;2.80;99.90
40077;DHT22;25777;47.824;18.982;2023-12-20T15:05:38;2.90;99.90
40077;DHT22;25777;47.824;18.982;2023-12-20T15:08:05;2.80;99.90
40077;DHT22;25777;47.824;18.982;2023-12-20T15:10:31;2.90;99.90
40077;DHT22;25777;47.824;18.982;2023-12-20T15:12:56;2.80;99.90
40077;DHT22;25777;47.824;18.982;2023-12-20T15:15:22;2.70;99.90
40077;DHT22;25777;47.824;18.982;2023-12-20T15:17:49;2.80;99.90
40077;DHT22;25777;47.824;18.982;2023-12-20T15:20:15;2.80;99.90
40077;DHT22;25777;47.824;18.982;2023-12-20T15:22:41;2.70;99.90
40077;DHT22;25777;47.824;18.982;2023-12-20T15:25:07;2.70;99.90
40077;DHT22;25777;47.824;18.982;2023-12-20T15:27:35;2.70;99.90
40077;DHT22;25777;47.824;18.982;2023-12-20T15:30:05;2.60;99.90
40077;DHT22;25777;47.824;18.982;2023-12-20T15:32:32;2.60;99.90